createdAt,value
2022-12-03T00:00:11.852Z,3.33
2022-12-03T00:05:14.775Z,3.34
2022-12-03T00:10:16.947Z,3.48
2022-12-03T00:15:19.255Z,3.38
2022-12-03T00:20:24.155Z,3.46
2022-12-03T00:25:26.469Z,3.41
2022-12-03T00:30:28.585Z,3.57
2022-12-03T00:35:30.669Z,3.47
2022-12-03T00:40:32.759Z,3.55
2022-12-03T00:45:34.815Z,3.48
2022-12-03T00:50:37.085Z,3.29
2022-12-03T00:55:39.218Z,3.20
2022-12-03T01:00:41.316Z,3.28
2022-12-03T01:05:43.336Z,3.29
2022-12-03T01:10:45.561Z,3.25
2022-12-03T01:15:47.775Z,3.22
2022-12-03T01:20:49.928Z,3.22
2022-12-03T01:25:52.056Z,3.27
2022-12-03T01:31:14.399Z,3.18
2022-12-03T01:36:16.610Z,3.30
2022-12-03T01:41:20.671Z,3.19
2022-12-03T01:46:27.449Z,3.18
2022-12-03T01:51:30.649Z,3.24
2022-12-03T01:56:32.836Z,3.18
2022-12-03T02:01:34.952Z,3.20
2022-12-03T02:06:37.094Z,3.16
2022-12-03T02:11:43.151Z,3.24
2022-12-03T02:16:46.084Z,3.28
2022-12-03T02:21:56.607Z,3.26
2022-12-03T02:26:58.970Z,3.24
2022-12-03T02:32:01.101Z,3.29
2022-12-03T02:37:06.236Z,3.31
2022-12-03T02:42:27.948Z,3.28
2022-12-03T02:47:31.910Z,3.37
2022-12-03T02:52:34.443Z,3.32
2022-12-03T02:57:38.829Z,3.35
2022-12-03T03:02:41.972Z,3.40
2022-12-03T03:07:44.686Z,3.41
2022-12-03T03:12:46.860Z,3.45
2022-12-03T03:17:49.078Z,3.47
2022-12-03T03:22:51.218Z,3.48
2022-12-03T03:27:53.396Z,3.43
2022-12-03T03:32:55.465Z,3.45
2022-12-03T03:37:58.829Z,3.41
2022-12-03T03:43:01.371Z,3.35
2022-12-03T03:48:03.865Z,3.35
2022-12-03T03:53:06.177Z,3.34
2022-12-03T03:58:08.762Z,3.32
2022-12-03T04:03:11.162Z,3.41
2022-12-03T04:08:13.294Z,3.37
2022-12-03T04:13:15.441Z,3.39
2022-12-03T04:18:36.011Z,3.43
2022-12-03T04:23:38.306Z,3.45
2022-12-03T04:28:49.495Z,3.39
2022-12-03T04:34:10.572Z,3.44
2022-12-03T04:39:12.656Z,3.53
2022-12-03T04:44:33.218Z,3.56
2022-12-03T04:49:37.581Z,3.53
2022-12-03T04:54:40.713Z,3.51
2022-12-03T04:59:42.846Z,3.47
2022-12-03T05:04:44.999Z,3.44
2022-12-03T05:09:47.069Z,3.37
2022-12-03T05:14:49.179Z,3.30
2022-12-03T05:20:10.058Z,3.28
2022-12-03T05:25:12.204Z,3.23
2022-12-03T05:30:14.705Z,3.19
2022-12-03T05:35:17.000Z,3.21
2022-12-03T05:40:20.376Z,3.18
2022-12-03T05:45:27.922Z,3.19
2022-12-03T05:50:32.825Z,3.20
2022-12-03T05:55:34.972Z,3.22
2022-12-03T06:00:42.380Z,3.25
2022-12-03T06:05:45.194Z,3.30
2022-12-03T06:10:47.275Z,3.28
2022-12-03T06:15:49.509Z,3.25
2022-12-03T06:20:51.703Z,3.29
2022-12-03T06:25:53.828Z,3.34
2022-12-03T06:30:55.968Z,3.40
2022-12-03T06:35:58.224Z,3.36
2022-12-03T06:41:00.293Z,3.43
2022-12-03T06:46:02.480Z,3.47
2022-12-03T06:51:04.745Z,3.52
2022-12-03T06:56:07.081Z,3.49
2022-12-03T07:01:09.351Z,3.61
2022-12-03T07:06:11.597Z,3.88
2022-12-03T07:11:32.162Z,3.96
2022-12-03T07:16:35.842Z,3.95
2022-12-03T07:21:38.325Z,4.13
2022-12-03T07:26:40.468Z,4.11
2022-12-03T07:31:42.603Z,4.04
2022-12-03T07:36:44.809Z,4.06
2022-12-03T07:41:47.009Z,4.06
2022-12-03T07:46:49.347Z,4.16
2022-12-03T07:51:54.824Z,4.16
2022-12-03T07:57:01.339Z,4.20
2022-12-03T08:02:04.277Z,4.35
2022-12-03T08:07:06.424Z,4.51
2022-12-03T08:12:16.438Z,4.68
2022-12-03T08:17:19.881Z,4.84
2022-12-03T08:22:22.358Z,4.95
2022-12-03T08:27:24.425Z,5.02
2022-12-03T08:32:26.727Z,5.13
2022-12-03T08:37:29.748Z,5.32
2022-12-03T08:42:42.996Z,5.55
2022-12-03T08:47:45.313Z,5.49
2022-12-03T08:52:47.421Z,5.55
2022-12-03T08:57:49.539Z,5.73
2022-12-03T09:02:58.954Z,5.73
2022-12-03T09:08:01.283Z,5.90
2022-12-03T09:13:03.536Z,5.81
2022-12-03T09:18:05.689Z,6.18
2022-12-03T09:23:08.228Z,6.30
2022-12-03T09:28:10.324Z,5.95
2022-12-03T09:33:12.520Z,6.84
2022-12-03T09:38:14.652Z,7.77
2022-12-03T09:43:17.121Z,8.03
2022-12-03T09:48:20.742Z,7.69
2022-12-03T09:53:28.553Z,7.77
2022-12-03T09:58:34.688Z,8.14
2022-12-03T10:03:42.810Z,7.92
2022-12-03T10:08:48.517Z,8.51
2022-12-03T10:13:51.545Z,8.72
2022-12-03T10:18:57.141Z,9.19
2022-12-03T10:24:25.849Z,14.05
2022-12-03T10:29:35.883Z,18.59
2022-12-03T10:34:41.502Z,18.97
2022-12-03T10:39:56.488Z,18.12
2022-12-03T10:45:22.400Z,13.87
2022-12-03T10:50:24.481Z,12.59
2022-12-03T10:55:28.957Z,13.96
2022-12-03T11:00:31.106Z,16.32
2022-12-03T11:05:33.852Z,17.02
2022-12-03T11:10:36.170Z,14.57
2022-12-03T11:15:45.309Z,12.24
2022-12-03T11:20:47.421Z,11.60
2022-12-03T11:25:50.636Z,13.14
2022-12-03T11:31:02.621Z,14.38
2022-12-03T11:36:04.766Z,19.55
2022-12-03T11:41:15.816Z,20.29
2022-12-03T11:46:21.866Z,21.41
2022-12-03T11:51:27.687Z,22.69
2022-12-03T11:56:30.263Z,21.72
2022-12-03T12:01:39.045Z,17.72
2022-12-03T12:06:43.783Z,14.49
2022-12-03T12:11:45.916Z,15.72
2022-12-03T12:16:55.299Z,16.57
2022-12-03T12:22:25.421Z,16.16
2022-12-03T12:27:35.200Z,16.36
2022-12-03T12:33:08.305Z,16.32
2022-12-03T12:38:19.800Z,15.39
2022-12-03T12:43:24.388Z,14.41
2022-12-03T12:48:31.099Z,13.39
2022-12-03T12:53:35.465Z,11.25
2022-12-03T12:58:37.700Z,10.14
2022-12-03T13:03:40.165Z,9.70
2022-12-03T13:08:48.823Z,8.89
2022-12-03T13:13:51.918Z,8.44
2022-12-03T13:18:56.480Z,8.20
2022-12-03T13:23:58.788Z,8.08
2022-12-03T13:29:06.344Z,7.96
2022-12-03T13:34:19.065Z,7.91
2022-12-03T13:39:27.751Z,7.83
2022-12-03T13:44:32.156Z,7.72
2022-12-03T13:49:34.839Z,7.56
2022-12-03T13:54:39.340Z,7.71
2022-12-03T13:59:41.604Z,7.74
2022-12-03T14:04:43.675Z,7.62
2022-12-03T14:09:45.780Z,7.54
2022-12-03T14:14:47.832Z,7.40
2022-12-03T14:19:50.101Z,7.32
2022-12-03T14:24:53.686Z,7.25
2022-12-03T14:29:56.230Z,7.40
2022-12-03T14:34:58.601Z,7.53
2022-12-03T14:40:00.690Z,7.45
2022-12-03T14:45:03.280Z,7.45
2022-12-03T14:50:06.107Z,7.47
2022-12-03T14:55:08.772Z,7.21
2022-12-03T15:00:11.783Z,7.02
2022-12-03T15:05:13.907Z,6.66
2022-12-03T15:10:16.905Z,6.38
2022-12-03T15:15:19.007Z,6.11
2022-12-03T15:20:21.218Z,5.95
2022-12-03T15:25:24.380Z,5.78
2022-12-03T15:30:26.473Z,5.52
2022-12-03T15:35:31.422Z,5.35
2022-12-03T15:40:33.524Z,5.14
2022-12-03T15:45:36.200Z,4.95
2022-12-03T15:50:40.317Z,4.70
2022-12-03T15:55:42.628Z,4.59
2022-12-03T16:00:44.764Z,4.51
2022-12-03T16:05:52.584Z,4.39
2022-12-03T16:10:54.810Z,4.33
2022-12-03T16:15:56.989Z,4.21
2022-12-03T16:20:59.127Z,4.19
2022-12-03T16:26:01.196Z,4.07
2022-12-03T16:31:04.032Z,4.01
2022-12-03T16:36:06.469Z,3.97
2022-12-03T16:41:09.745Z,3.94
2022-12-03T16:46:14.738Z,3.88
2022-12-03T16:51:19.315Z,3.78
2022-12-03T16:56:21.754Z,3.70
2022-12-03T17:01:24.050Z,3.74
2022-12-03T17:06:26.254Z,4.08
2022-12-03T17:11:28.495Z,4.20
2022-12-03T17:16:30.627Z,4.27
2022-12-03T17:21:35.027Z,4.34
2022-12-03T17:26:37.544Z,4.43
2022-12-03T17:31:42.208Z,4.47
2022-12-03T17:36:45.011Z,4.51
2022-12-03T17:41:47.094Z,4.39
2022-12-03T17:46:49.354Z,4.15
2022-12-03T17:51:51.574Z,3.99
2022-12-03T17:56:53.671Z,3.81
2022-12-03T18:01:55.807Z,3.70
2022-12-03T18:07:02.210Z,3.59
2022-12-03T18:12:05.095Z,3.46
2022-12-03T18:17:07.258Z,3.42
2022-12-03T18:22:09.887Z,3.39
2022-12-03T18:27:12.086Z,3.35
2022-12-03T18:32:27.606Z,3.32
2022-12-03T18:37:32.269Z,3.31
2022-12-03T18:42:34.407Z,3.35
2022-12-03T18:47:36.592Z,3.36
2022-12-03T18:52:39.374Z,3.39
2022-12-03T18:57:41.480Z,3.33
2022-12-03T19:03:02.377Z,3.51
2022-12-03T19:08:13.993Z,3.89
2022-12-03T19:13:16.246Z,3.87
2022-12-03T19:18:18.322Z,3.79
2022-12-03T19:23:20.574Z,3.76
2022-12-03T19:28:22.872Z,3.62
2022-12-03T19:33:28.615Z,3.45
2022-12-03T19:38:31.643Z,3.23
2022-12-03T19:43:36.496Z,3.25
2022-12-03T19:48:40.533Z,3.17
2022-12-03T19:53:43.055Z,3.21
2022-12-03T19:58:47.012Z,3.19
2022-12-03T20:03:51.578Z,3.21
2022-12-03T20:09:01.358Z,3.31
2022-12-03T20:14:09.024Z,3.44
2022-12-03T20:19:13.566Z,3.35
2022-12-03T20:24:17.384Z,3.49
2022-12-03T20:29:19.564Z,3.63
2022-12-03T20:34:21.643Z,3.72
2022-12-03T20:39:23.869Z,3.65
2022-12-03T20:44:25.979Z,3.77
2022-12-03T20:49:28.067Z,3.80
2022-12-03T20:54:30.299Z,3.85
2022-12-03T20:59:32.987Z,3.81
2022-12-03T21:04:35.180Z,3.73
2022-12-03T21:09:37.499Z,3.72
2022-12-03T21:14:39.729Z,3.71
2022-12-03T21:19:41.814Z,3.60
2022-12-03T21:24:44.136Z,3.71
2022-12-03T21:29:46.178Z,3.60
2022-12-03T21:34:48.252Z,3.61
2022-12-03T21:39:50.461Z,3.61
2022-12-03T21:44:52.676Z,3.53
2022-12-03T21:49:55.194Z,3.57
2022-12-03T21:54:57.509Z,3.63
2022-12-03T21:59:59.796Z,3.72
2022-12-03T22:05:01.877Z,3.87
2022-12-03T22:10:06.009Z,4.12
2022-12-03T22:15:14.881Z,4.28
2022-12-03T22:20:20.609Z,4.35
2022-12-03T22:25:22.732Z,4.40
2022-12-03T22:30:25.111Z,4.35
2022-12-03T22:35:27.195Z,4.29
2022-12-03T22:40:29.276Z,4.19
2022-12-03T22:45:31.342Z,4.13
2022-12-03T22:50:33.467Z,4.21
2022-12-03T22:55:35.545Z,4.24
2022-12-03T23:00:40.588Z,4.11
2022-12-03T23:05:42.710Z,4.05
2022-12-03T23:10:46.714Z,4.22
2022-12-03T23:15:51.852Z,4.26
2022-12-03T23:20:56.116Z,4.51
2022-12-03T23:26:07.457Z,4.38
2022-12-03T23:31:28.439Z,4.27
2022-12-03T23:36:32.756Z,4.07
2022-12-03T23:41:34.825Z,3.88
2022-12-03T23:46:39.229Z,3.65
2022-12-03T23:51:41.406Z,3.46
2022-12-03T23:56:43.570Z,3.37
